createdAt,value
2023-02-23T00:02:21.455Z,24.77
2023-02-23T00:04:51.402Z,29.30
2023-02-23T00:07:21.004Z,28.17
2023-02-23T00:09:50.902Z,29.87
2023-02-23T00:12:20.785Z,28.37
2023-02-23T00:14:49.404Z,33.43
2023-02-23T00:17:19.912Z,27.07
2023-02-23T00:19:50.420Z,32.60
2023-02-23T00:22:19.469Z,25.53
2023-02-23T00:24:48.192Z,27.43
2023-02-23T00:27:20.929Z,26.63
2023-02-23T00:29:51.067Z,27.63
2023-02-23T00:32:21.063Z,23.43
2023-02-23T00:34:50.927Z,33.80
2023-02-23T00:37:20.247Z,24.53
2023-02-23T00:39:50.173Z,28.80
2023-02-23T00:42:18.897Z,30.17
2023-02-23T00:44:48.907Z,30.03
2023-02-23T00:47:17.630Z,36.00
2023-02-23T00:49:46.077Z,35.23
2023-02-23T00:52:16.182Z,28.47
2023-02-23T00:54:44.777Z,27.80
2023-02-23T00:57:13.459Z,32.10
2023-02-23T00:59:41.870Z,30.57
2023-02-23T01:02:10.904Z,37.67
2023-02-23T01:04:39.331Z,30.37
2023-02-23T01:07:08.294Z,34.70
2023-02-23T01:09:38.178Z,33.03
2023-02-23T01:12:07.901Z,34.00
2023-02-23T01:14:37.643Z,30.70
2023-02-23T01:17:07.436Z,35.77
2023-02-23T01:19:38.020Z,29.63
2023-02-23T01:22:06.910Z,29.30
2023-02-23T01:24:35.308Z,26.93
2023-02-23T01:27:08.138Z,33.53
2023-02-23T01:29:36.506Z,22.10
2023-02-23T01:32:05.583Z,27.73
2023-02-23T01:34:34.016Z,25.67
2023-02-23T01:37:03.197Z,31.27
2023-02-23T01:39:33.620Z,26.00
2023-02-23T01:42:02.345Z,30.00
2023-02-23T01:45:22.376Z,25.23
2023-02-23T01:47:56.148Z,30.87
2023-02-23T01:50:28.526Z,28.20
2023-02-23T01:52:59.337Z,33.27
2023-02-23T01:55:30.133Z,33.63
2023-02-23T01:58:11.654Z,31.77
2023-02-23T02:00:40.034Z,37.43
2023-02-23T02:03:15.731Z,28.30
2023-02-23T02:05:46.346Z,28.83
2023-02-23T02:08:18.985Z,32.33
2023-02-23T02:10:47.763Z,32.60
2023-02-23T02:13:22.845Z,27.57
2023-02-23T02:16:25.094Z,34.07
2023-02-23T02:19:18.722Z,33.47
2023-02-23T02:22:15.422Z,41.13
2023-02-23T02:25:11.839Z,29.77
2023-02-23T02:28:08.627Z,25.67
2023-02-23T02:31:02.330Z,38.63
2023-02-23T02:34:02.495Z,35.20
2023-02-23T02:37:11.890Z,34.63
2023-02-23T02:39:53.542Z,28.17
2023-02-23T02:42:30.065Z,34.67
2023-02-23T02:45:07.715Z,33.13
2023-02-23T02:47:43.415Z,31.10
2023-02-23T02:50:18.288Z,31.60
2023-02-23T02:52:55.285Z,34.03
2023-02-23T02:55:27.384Z,36.40
2023-02-23T02:57:59.876Z,38.27
2023-02-23T03:00:50.571Z,33.40
2023-02-23T03:03:51.125Z,32.53
2023-02-23T03:06:38.607Z,32.40
2023-02-23T03:09:37.879Z,35.47
2023-02-23T03:12:29.054Z,33.70
2023-02-23T03:15:27.744Z,34.47
2023-02-23T03:18:23.146Z,27.50
2023-02-23T03:21:12.521Z,34.23
2023-02-23T03:24:05.180Z,29.60
2023-02-23T03:26:59.951Z,37.30
2023-02-23T03:29:54.830Z,37.60
2023-02-23T03:32:48.519Z,31.40
2023-02-23T03:35:42.063Z,30.03
2023-02-23T03:38:35.535Z,30.77
2023-02-23T03:41:23.134Z,32.70
2023-02-23T03:44:14.938Z,24.13
2023-02-23T03:47:03.247Z,35.87
2023-02-23T03:49:53.627Z,29.07
2023-02-23T03:52:44.140Z,30.73
2023-02-23T03:55:35.979Z,27.87
2023-02-23T03:58:25.206Z,29.43
2023-02-23T04:01:17.216Z,27.33
2023-02-23T04:04:05.049Z,32.47
2023-02-23T04:06:56.443Z,30.40
2023-02-23T04:09:42.506Z,29.33
2023-02-23T04:12:33.802Z,28.67
2023-02-23T04:15:07.775Z,28.13
2023-02-23T04:17:37.803Z,32.83
2023-02-23T04:20:07.801Z,28.93
2023-02-23T04:22:36.895Z,36.70
2023-02-23T04:25:08.985Z,28.00
2023-02-23T04:27:37.810Z,32.23
2023-02-23T04:30:07.517Z,34.87
2023-02-23T04:32:38.344Z,32.33
2023-02-23T04:35:07.722Z,29.63
2023-02-23T04:37:36.550Z,36.70
2023-02-23T04:40:05.693Z,32.00
2023-02-23T04:42:34.797Z,30.13
2023-02-23T04:45:03.253Z,23.23
2023-02-23T04:47:31.962Z,28.93
2023-02-23T04:50:01.825Z,29.23
2023-02-23T04:52:31.441Z,30.97
2023-02-23T04:54:59.871Z,27.40
2023-02-23T04:57:29.012Z,24.03
2023-02-23T04:59:57.598Z,30.83
2023-02-23T05:02:26.864Z,27.40
2023-02-23T05:04:55.432Z,29.63
2023-02-23T05:07:25.790Z,29.90
2023-02-23T05:09:54.339Z,33.33
2023-02-23T05:12:23.043Z,29.10
2023-02-23T05:14:51.548Z,23.60
2023-02-23T05:17:20.254Z,31.47
2023-02-23T05:19:48.730Z,32.33
2023-02-23T05:22:17.541Z,37.93
2023-02-23T05:24:47.685Z,33.33
2023-02-23T05:27:17.736Z,33.37
2023-02-23T05:29:46.204Z,27.43
2023-02-23T05:32:15.344Z,38.47
2023-02-23T05:34:44.098Z,35.43
2023-02-23T05:37:12.878Z,27.50
2023-02-23T05:39:41.337Z,36.30
2023-02-23T05:42:11.462Z,35.00
2023-02-23T05:44:40.026Z,30.70
2023-02-23T05:47:08.935Z,38.63
2023-02-23T05:49:37.457Z,32.00
2023-02-23T05:52:06.899Z,32.43
2023-02-23T05:54:35.470Z,32.53
2023-02-23T05:57:04.371Z,28.43
2023-02-23T05:59:34.202Z,34.00
2023-02-23T06:02:05.970Z,33.30
2023-02-23T06:04:34.889Z,32.23
2023-02-23T06:07:03.618Z,42.40
2023-02-23T06:09:32.043Z,37.40
2023-02-23T06:12:00.928Z,33.87
2023-02-23T06:14:29.481Z,30.73
2023-02-23T06:17:00.379Z,29.73
2023-02-23T06:19:29.289Z,33.47
2023-02-23T06:21:57.987Z,33.27
2023-02-23T06:24:26.733Z,35.03
2023-02-23T06:26:55.651Z,29.63
2023-02-23T06:29:24.234Z,40.73
2023-02-23T06:31:53.057Z,36.33
2023-02-23T06:34:22.871Z,51.87
2023-02-23T06:36:51.680Z,39.23
2023-02-23T06:39:20.173Z,40.63
2023-02-23T06:41:48.868Z,41.63
2023-02-23T06:44:17.387Z,34.33
2023-02-23T06:46:46.133Z,36.23
2023-02-23T06:49:16.574Z,42.40
2023-02-23T06:51:47.641Z,35.77
2023-02-23T06:54:16.202Z,37.37
2023-02-23T06:56:45.388Z,39.47
2023-02-23T06:59:14.154Z,34.00
2023-02-23T07:01:44.768Z,46.63
2023-02-23T07:04:16.282Z,43.40
2023-02-23T07:06:46.984Z,42.60
2023-02-23T07:09:16.218Z,41.17
2023-02-23T07:11:45.430Z,37.13
2023-02-23T07:14:21.546Z,35.40
2023-02-23T07:16:55.168Z,39.57
2023-02-23T07:19:23.938Z,35.40
2023-02-23T07:21:54.155Z,39.97
2023-02-23T07:24:22.801Z,39.90
2023-02-23T07:26:52.152Z,31.10
2023-02-23T07:29:20.641Z,35.40
2023-02-23T07:31:50.019Z,38.33
2023-02-23T07:34:18.740Z,38.87
2023-02-23T07:36:47.571Z,40.30
2023-02-23T07:39:17.790Z,39.27
2023-02-23T07:41:46.636Z,33.43
2023-02-23T07:44:20.202Z,31.80
2023-02-23T07:46:49.560Z,43.40
2023-02-23T07:49:18.216Z,41.20
2023-02-23T07:51:47.367Z,36.57
2023-02-23T07:54:17.754Z,38.80
2023-02-23T07:56:47.084Z,44.33
2023-02-23T07:59:15.669Z,38.27
2023-02-23T08:01:44.725Z,39.67
2023-02-23T08:04:13.420Z,47.30
2023-02-23T08:06:42.316Z,34.67
2023-02-23T08:09:12.396Z,45.10
2023-02-23T08:11:42.580Z,30.23
2023-02-23T08:14:11.539Z,38.17
2023-02-23T08:16:40.375Z,43.87
2023-02-23T08:19:08.995Z,31.50
2023-02-23T08:21:37.728Z,36.27
2023-02-23T08:24:07.144Z,42.33
2023-02-23T08:26:38.165Z,57.10
2023-02-23T08:29:08.142Z,94.40
2023-02-23T08:31:37.581Z,89.40
2023-02-23T08:34:06.132Z,83.90
2023-02-23T08:36:35.100Z,83.33
2023-02-23T08:39:06.418Z,84.83
2023-02-23T08:41:35.600Z,80.90
2023-02-23T08:44:04.364Z,70.37
2023-02-23T08:46:34.813Z,69.53
2023-02-23T08:49:04.699Z,71.53
2023-02-23T08:51:34.934Z,80.10
2023-02-23T08:54:03.658Z,75.20
2023-02-23T08:56:33.367Z,80.57
2023-02-23T08:59:01.879Z,74.00
2023-02-23T09:01:30.719Z,76.03
2023-02-23T09:04:00.788Z,72.93
2023-02-23T09:06:29.806Z,70.77
2023-02-23T09:08:58.451Z,83.67
2023-02-23T09:11:27.432Z,67.13
2023-02-23T09:13:56.031Z,73.23
2023-02-23T09:16:25.037Z,80.20
2023-02-23T09:18:53.820Z,75.83
2023-02-23T09:21:25.300Z,68.63
2023-02-23T09:23:56.080Z,60.97
2023-02-23T09:26:26.241Z,53.77
2023-02-23T09:28:54.828Z,52.23
2023-02-23T09:31:25.211Z,61.67
2023-02-23T09:33:54.955Z,57.43
2023-02-23T09:36:26.555Z,54.37
2023-02-23T09:38:57.789Z,53.20
2023-02-23T09:42:01.291Z,43.40
2023-02-23T09:44:48.461Z,43.67
2023-02-23T09:47:33.381Z,46.93
2023-02-23T09:50:07.119Z,50.30
2023-02-23T09:52:42.440Z,45.47
2023-02-23T09:55:12.517Z,50.90
2023-02-23T09:57:44.640Z,51.77
2023-02-23T10:00:19.624Z,47.23
2023-02-23T10:03:25.707Z,50.83
2023-02-23T10:06:01.171Z,48.83
2023-02-23T10:08:45.587Z,45.60
2023-02-23T10:11:24.538Z,44.03
2023-02-23T10:14:05.638Z,40.13
2023-02-23T10:16:41.908Z,36.27
2023-02-23T10:19:20.470Z,47.80
2023-02-23T10:21:56.133Z,48.90
2023-02-23T10:24:30.666Z,54.33
2023-02-23T10:27:01.994Z,56.13
2023-02-23T10:29:36.052Z,50.83
2023-02-23T10:32:08.906Z,46.83
2023-02-23T10:34:38.036Z,58.10
2023-02-23T10:37:08.078Z,53.43
2023-02-23T10:39:38.454Z,48.47
2023-02-23T10:42:12.282Z,56.40
2023-02-23T10:44:43.430Z,48.47
2023-02-23T10:47:17.501Z,62.67
2023-02-23T10:49:49.653Z,48.73
2023-02-23T10:52:24.223Z,53.23
2023-02-23T10:54:54.807Z,47.60
2023-02-23T10:57:27.880Z,41.10
2023-02-23T11:00:09.914Z,41.90
2023-02-23T11:02:38.695Z,42.30
2023-02-23T11:05:08.241Z,46.83
2023-02-23T11:07:36.723Z,48.87
2023-02-23T11:10:26.075Z,41.17
2023-02-23T11:12:54.666Z,51.27
2023-02-23T11:15:46.410Z,57.90
2023-02-23T11:18:22.654Z,43.33
2023-02-23T11:20:52.390Z,35.00
2023-02-23T11:23:29.244Z,43.97
2023-02-23T11:26:02.660Z,45.33
2023-02-23T11:28:34.896Z,38.00
2023-02-23T11:31:10.101Z,40.97
2023-02-23T11:33:40.940Z,40.23
2023-02-23T11:36:28.859Z,58.63
2023-02-23T11:39:23.490Z,42.00
2023-02-23T11:42:17.956Z,50.13
2023-02-23T11:44:52.680Z,40.73
2023-02-23T11:47:23.629Z,37.90
2023-02-23T11:49:52.794Z,40.27
2023-02-23T11:52:24.833Z,38.90
2023-02-23T11:54:57.760Z,39.73
2023-02-23T11:57:30.209Z,51.87
2023-02-23T12:00:00.522Z,43.73
2023-02-23T12:02:31.618Z,40.03
2023-02-23T12:05:08.226Z,37.20
2023-02-23T12:07:41.821Z,46.67
2023-02-23T12:10:23.114Z,38.57
2023-02-23T12:12:59.453Z,46.80
2023-02-23T12:15:39.643Z,50.97
2023-02-23T12:18:18.277Z,45.47
2023-02-23T12:20:50.253Z,42.47
2023-02-23T12:23:23.325Z,42.20
2023-02-23T12:25:56.072Z,44.90
2023-02-23T12:28:33.084Z,40.43
2023-02-23T12:31:04.235Z,50.50
2023-02-23T12:33:38.605Z,40.23
2023-02-23T12:36:18.354Z,42.93
2023-02-23T12:38:54.467Z,40.90
2023-02-23T12:41:32.820Z,40.83
2023-02-23T12:44:13.389Z,45.87
2023-02-23T12:46:48.825Z,38.57
2023-02-23T12:49:25.353Z,45.87
2023-02-23T12:51:58.647Z,41.67
2023-02-23T12:54:27.760Z,43.00
2023-02-23T12:57:09.476Z,42.03
2023-02-23T13:00:04.257Z,38.37
2023-02-23T13:02:41.068Z,46.07
2023-02-23T13:05:22.605Z,50.70
2023-02-23T13:08:12.854Z,43.53
2023-02-23T13:10:52.450Z,37.73
2023-02-23T13:13:32.254Z,41.67
2023-02-23T13:16:12.780Z,48.57
2023-02-23T13:18:47.360Z,40.50
2023-02-23T13:21:24.812Z,46.13
2023-02-23T13:23:59.873Z,40.03
2023-02-23T13:26:36.687Z,36.37
2023-02-23T13:29:11.967Z,46.07
2023-02-23T13:31:43.586Z,40.40
2023-02-23T13:34:18.129Z,49.70
2023-02-23T13:36:47.194Z,50.57
2023-02-23T13:39:39.808Z,38.27
2023-02-23T13:42:21.042Z,48.50
2023-02-23T13:44:58.529Z,48.00
2023-02-23T13:47:40.925Z,44.33
2023-02-23T13:50:22.604Z,44.23
2023-02-23T13:52:58.308Z,50.30
2023-02-23T13:55:50.375Z,51.30
2023-02-23T13:58:23.669Z,38.93
2023-02-23T14:01:04.422Z,44.07
2023-02-23T14:03:41.354Z,47.33
2023-02-23T14:06:15.485Z,49.87
2023-02-23T14:08:47.249Z,48.30
2023-02-23T14:11:39.508Z,45.87
2023-02-23T14:14:08.182Z,55.40
2023-02-23T14:16:37.219Z,37.53
2023-02-23T14:19:12.001Z,47.60
2023-02-23T14:21:49.915Z,47.77
2023-02-23T14:24:22.487Z,45.77
2023-02-23T14:27:34.082Z,39.30
2023-02-23T14:30:27.093Z,48.63
2023-02-23T14:32:55.802Z,45.43
2023-02-23T14:35:45.623Z,43.30
2023-02-23T14:38:38.812Z,43.27
2023-02-23T14:41:14.711Z,40.30
2023-02-23T14:43:46.473Z,51.33
2023-02-23T14:46:26.291Z,46.97
2023-02-23T14:49:00.383Z,45.87
2023-02-23T14:51:47.988Z,40.73
2023-02-23T14:54:28.331Z,44.13
2023-02-23T14:56:59.595Z,38.83
2023-02-23T14:59:30.820Z,39.00
2023-02-23T15:02:01.726Z,45.37
2023-02-23T15:04:31.471Z,43.03
2023-02-23T15:07:02.830Z,49.83
2023-02-23T15:09:34.905Z,44.33
2023-02-23T15:12:13.160Z,40.20
2023-02-23T15:14:42.839Z,43.57
2023-02-23T15:17:18.534Z,50.60
2023-02-23T15:19:49.060Z,52.50
2023-02-23T15:22:26.139Z,48.03
2023-02-23T15:24:58.950Z,44.60
2023-02-23T15:27:32.271Z,42.00
2023-02-23T15:30:04.257Z,40.07
2023-02-23T15:32:33.151Z,41.57
2023-02-23T15:35:04.342Z,48.90
2023-02-23T15:37:40.048Z,49.53
2023-02-23T15:40:14.884Z,46.37
2023-02-23T15:42:46.175Z,41.87
2023-02-23T15:45:21.036Z,41.50
2023-02-23T15:47:53.939Z,50.97
2023-02-23T15:50:36.349Z,47.00
2023-02-23T15:53:13.423Z,54.33
2023-02-23T15:55:44.596Z,52.43
2023-02-23T15:58:19.795Z,54.47
2023-02-23T16:00:56.379Z,48.93
2023-02-23T16:03:30.718Z,49.87
2023-02-23T16:06:05.214Z,43.87
2023-02-23T16:08:37.052Z,50.23
2023-02-23T16:11:14.378Z,46.23
2023-02-23T16:13:45.022Z,53.53
2023-02-23T16:16:19.449Z,48.67
2023-02-23T16:18:54.047Z,48.90
2023-02-23T16:21:25.404Z,53.03
2023-02-23T16:23:58.369Z,56.77
2023-02-23T16:26:32.678Z,54.57
2023-02-23T16:29:04.080Z,53.30
2023-02-23T16:31:51.317Z,52.50
2023-02-23T16:34:27.147Z,47.70
2023-02-23T16:36:58.776Z,48.03
2023-02-23T16:39:30.981Z,45.90
2023-02-23T16:42:00.460Z,47.23
2023-02-23T16:44:43.008Z,52.37
2023-02-23T16:47:28.149Z,48.77
2023-02-23T16:49:58.184Z,51.00
2023-02-23T16:52:27.781Z,57.40
2023-02-23T16:54:58.281Z,49.20
2023-02-23T16:57:29.609Z,53.03
2023-02-23T16:59:58.683Z,53.43
2023-02-23T17:02:27.330Z,52.73
2023-02-23T17:04:58.961Z,74.73
2023-02-23T17:07:27.441Z,71.57
2023-02-23T17:09:58.914Z,68.87
2023-02-23T17:12:27.484Z,72.13
2023-02-23T17:14:56.416Z,58.67
2023-02-23T17:17:24.869Z,55.27
2023-02-23T17:19:53.782Z,67.27
2023-02-23T17:22:22.195Z,50.37
2023-02-23T17:24:50.997Z,58.57
2023-02-23T17:27:20.827Z,52.10
2023-02-23T17:29:49.525Z,52.13
2023-02-23T17:32:18.153Z,60.60
2023-02-23T17:34:50.151Z,58.13
2023-02-23T17:37:20.139Z,59.83
2023-02-23T17:39:49.634Z,67.20
2023-02-23T17:42:18.323Z,62.20
2023-02-23T17:44:48.368Z,55.50
2023-02-23T17:47:16.835Z,67.27
2023-02-23T17:49:45.523Z,59.00
2023-02-23T17:52:13.991Z,58.03
2023-02-23T17:54:42.751Z,67.93
2023-02-23T17:57:11.394Z,66.77
2023-02-23T17:59:40.154Z,76.23
2023-02-23T18:02:14.761Z,73.27
2023-02-23T18:04:43.979Z,58.70
2023-02-23T18:07:12.552Z,59.10
2023-02-23T18:09:41.383Z,60.53
2023-02-23T18:12:10.673Z,58.43
2023-02-23T18:14:39.443Z,57.33
2023-02-23T18:17:09.426Z,59.67
2023-02-23T18:19:38.274Z,60.07
2023-02-23T18:22:06.818Z,58.77
2023-02-23T18:24:36.376Z,65.83
2023-02-23T18:27:05.574Z,59.50
2023-02-23T18:29:36.238Z,58.40
2023-02-23T18:32:06.627Z,61.17
2023-02-23T18:34:37.566Z,63.80
2023-02-23T18:37:09.837Z,58.60
2023-02-23T18:39:38.867Z,70.97
2023-02-23T18:42:07.591Z,68.50
2023-02-23T18:44:36.732Z,61.00
2023-02-23T18:47:05.318Z,72.43
2023-02-23T18:49:34.101Z,74.17
2023-02-23T18:52:05.417Z,71.17
2023-02-23T18:54:34.302Z,70.43
2023-02-23T18:57:03.277Z,71.00
2023-02-23T18:59:32.118Z,86.27
2023-02-23T19:02:00.870Z,114.93
2023-02-23T19:04:29.820Z,139.67
2023-02-23T19:06:58.907Z,143.03
2023-02-23T19:09:29.331Z,141.97
2023-02-23T19:11:58.258Z,141.63
2023-02-23T19:14:47.811Z,226.07
2023-02-23T19:17:16.078Z,126.87
2023-02-23T19:19:45.421Z,103.30
2023-02-23T19:22:14.024Z,81.97
2023-02-23T19:24:44.214Z,78.87
2023-02-23T19:27:12.666Z,84.93
2023-02-23T19:29:41.370Z,95.57
2023-02-23T19:32:10.206Z,89.23
2023-02-23T19:34:40.045Z,90.63
2023-02-23T19:37:09.106Z,81.37
2023-02-23T19:39:38.400Z,83.77
2023-02-23T19:42:09.245Z,79.40
2023-02-23T19:44:38.191Z,92.03
2023-02-23T19:47:07.691Z,98.37
2023-02-23T19:49:36.776Z,108.20
2023-02-23T19:52:06.931Z,91.43
2023-02-23T19:54:38.014Z,81.23
2023-02-23T19:57:09.934Z,86.50
2023-02-23T19:59:38.977Z,93.57
2023-02-23T20:02:07.991Z,90.40
2023-02-23T20:04:37.158Z,81.67
2023-02-23T20:07:05.998Z,94.20
2023-02-23T20:09:35.305Z,88.13
2023-02-23T20:12:04.261Z,93.47
2023-02-23T20:14:34.980Z,110.27
2023-02-23T20:17:05.494Z,89.50
2023-02-23T20:19:34.770Z,107.03
2023-02-23T20:22:03.648Z,113.47
2023-02-23T20:24:32.518Z,106.47
2023-02-23T20:27:01.378Z,96.00
2023-02-23T20:29:31.312Z,98.53
2023-02-23T20:32:02.976Z,97.00
2023-02-23T20:34:32.302Z,98.60
2023-02-23T20:37:00.935Z,101.60
2023-02-23T20:39:29.785Z,99.83
2023-02-23T20:41:58.423Z,95.90
2023-02-23T20:44:29.103Z,100.10
2023-02-23T20:46:58.008Z,91.53
2023-02-23T20:49:29.847Z,100.47
2023-02-23T20:51:58.578Z,89.27
2023-02-23T20:54:27.954Z,96.93
2023-02-23T20:57:07.452Z,96.53
2023-02-23T20:59:37.507Z,103.20
2023-02-23T21:02:08.151Z,100.13
2023-02-23T21:04:38.889Z,109.83
2023-02-23T21:07:07.509Z,95.70
2023-02-23T21:09:36.395Z,98.33
2023-02-23T21:12:05.049Z,99.47
2023-02-23T21:14:35.496Z,135.60
2023-02-23T21:17:05.344Z,94.30
2023-02-23T21:19:36.340Z,92.43
2023-02-23T21:22:06.486Z,97.23
2023-02-23T21:24:35.285Z,92.20
2023-02-23T21:27:05.250Z,89.27
2023-02-23T21:29:34.202Z,93.07
2023-02-23T21:32:02.847Z,92.33
2023-02-23T21:34:31.691Z,103.87
2023-02-23T21:37:00.582Z,90.03
2023-02-23T21:39:31.494Z,90.93
2023-02-23T21:42:00.410Z,89.37
2023-02-23T21:44:29.294Z,92.33
2023-02-23T21:46:58.445Z,88.90
2023-02-23T21:49:27.275Z,89.27
2023-02-23T21:51:55.751Z,94.03
2023-02-23T21:54:25.011Z,97.77
2023-02-23T21:56:55.504Z,101.60
2023-02-23T21:59:24.464Z,87.27
2023-02-23T22:01:53.028Z,86.33
2023-02-23T22:04:22.112Z,90.50
2023-02-23T22:06:50.586Z,97.80
2023-02-23T22:09:19.334Z,92.83
2023-02-23T22:11:48.912Z,77.03
2023-02-23T22:14:19.143Z,85.73
2023-02-23T22:16:49.644Z,86.13
2023-02-23T22:19:19.480Z,75.77
2023-02-23T22:21:48.903Z,77.23
2023-02-23T22:24:18.216Z,77.27
2023-02-23T22:26:50.577Z,88.77
2023-02-23T22:29:21.565Z,85.90
2023-02-23T22:31:50.615Z,69.20
2023-02-23T22:34:19.657Z,89.37
2023-02-23T22:36:48.443Z,75.43
2023-02-23T22:39:18.626Z,71.17
2023-02-23T22:41:48.071Z,72.70
2023-02-23T22:44:18.654Z,76.70
2023-02-23T22:46:49.541Z,80.20
2023-02-23T22:49:19.939Z,77.87
2023-02-23T22:51:50.425Z,86.03
2023-02-23T22:54:20.481Z,87.17
2023-02-23T22:56:49.150Z,77.70
2023-02-23T22:59:20.325Z,68.43
2023-02-23T23:01:50.562Z,74.17
2023-02-23T23:04:21.954Z,80.67
2023-02-23T23:06:50.641Z,73.93
2023-02-23T23:09:21.098Z,70.93
2023-02-23T23:11:51.094Z,75.90
2023-02-23T23:14:20.372Z,63.83
2023-02-23T23:16:51.059Z,72.33
2023-02-23T23:19:24.082Z,76.10
2023-02-23T23:21:55.661Z,72.37
2023-02-23T23:24:25.790Z,60.47
2023-02-23T23:27:00.375Z,76.43
2023-02-23T23:29:30.630Z,70.07
2023-02-23T23:32:01.580Z,66.73
2023-02-23T23:34:33.501Z,69.67
2023-02-23T23:37:02.759Z,75.73
2023-02-23T23:39:31.592Z,69.03
2023-02-23T23:42:01.749Z,64.40
2023-02-23T23:44:33.781Z,57.83
2023-02-23T23:47:05.413Z,69.73
2023-02-23T23:49:37.730Z,75.40
2023-02-23T23:52:07.086Z,65.60
2023-02-23T23:54:39.095Z,67.67
2023-02-23T23:57:11.352Z,59.87
2023-02-23T23:59:45.741Z,52.23
